sensor_id;sensor_type;location;lat;lon;timestamp;P1;durP1;ratioP1;P2;durP2;ratioP2
25621;SDS011;13487;39.360;22.962;2022-11-03T00:01:00;3.38;;;2.05;;
25621;SDS011;13487;39.360;22.962;2022-11-03T00:03:26;7.07;;;3.10;;
25621;SDS011;13487;39.360;22.962;2022-11-03T00:05:52;2.27;;;1.77;;
25621;SDS011;13487;39.360;22.962;2022-11-03T00:11:07;2.67;;;2.47;;
25621;SDS011;13487;39.360;22.962;2022-11-03T00:13:39;7.13;;;1.73;;
25621;SDS011;13487;39.360;22.962;2022-11-03T00:16:06;0.88;;;0.88;;
25621;SDS011;13487;39.360;22.962;2022-11-03T00:18:34;3.07;;;2.00;;
25621;SDS011;13487;39.360;22.962;2022-11-03T00:21:01;8.53;;;2.33;;
25621;SDS011;13487;39.360;22.962;2022-11-03T00:23:29;2.08;;;1.98;;
25621;SDS011;13487;39.360;22.962;2022-11-03T00:26:04;8.17;;;2.87;;
25621;SDS011;13487;39.360;22.962;2022-11-03T00:28:30;3.17;;;1.37;;
25621;SDS011;13487;39.360;22.962;2022-11-03T00:30:57;4.33;;;1.97;;
25621;SDS011;13487;39.360;22.962;2022-11-03T00:33:24;2.27;;;2.07;;
25621;SDS011;13487;39.360;22.962;2022-11-03T00:35:57;1.37;;;1.27;;
25621;SDS011;13487;39.360;22.962;2022-11-03T00:38:24;1.70;;;1.60;;
25621;SDS011;13487;39.360;22.962;2022-11-03T00:40:53;0.50;;;0.50;;
25621;SDS011;13487;39.360;22.962;2022-11-03T00:43:24;2.47;;;0.90;;
25621;SDS011;13487;39.360;22.962;2022-11-03T00:45:51;0.67;;;0.67;;
25621;SDS011;13487;39.360;22.962;2022-11-03T00:48:17;6.47;;;3.23;;
25621;SDS011;13487;39.360;22.962;2022-11-03T00:51:12;29.87;;;3.40;;
25621;SDS011;13487;39.360;22.962;2022-11-03T00:53:41;4.07;;;2.70;;
25621;SDS011;13487;39.360;22.962;2022-11-03T00:56:09;0.60;;;0.60;;
25621;SDS011;13487;39.360;22.962;2022-11-03T00:58:36;3.03;;;1.57;;
25621;SDS011;13487;39.360;22.962;2022-11-03T01:01:03;0.90;;;0.87;;
25621;SDS011;13487;39.360;22.962;2022-11-03T01:03:38;2.73;;;1.90;;
25621;SDS011;13487;39.360;22.962;2022-11-03T01:06:05;1.20;;;1.10;;
25621;SDS011;13487;39.360;22.962;2022-11-03T01:08:54;4.70;;;1.03;;
25621;SDS011;13487;39.360;22.962;2022-11-03T01:11:21;1.47;;;1.37;;
25621;SDS011;13487;39.360;22.962;2022-11-03T01:14:08;1.73;;;1.63;;
25621;SDS011;13487;39.360;22.962;2022-11-03T01:16:35;0.43;;;0.43;;
25621;SDS011;13487;39.360;22.962;2022-11-03T01:19:01;0.33;;;0.33;;
25621;SDS011;13487;39.360;22.962;2022-11-03T01:21:27;3.03;;;2.13;;
25621;SDS011;13487;39.360;22.962;2022-11-03T01:23:53;0.90;;;0.83;;
25621;SDS011;13487;39.360;22.962;2022-11-03T01:26:19;1.47;;;0.77;;
25621;SDS011;13487;39.360;22.962;2022-11-03T01:28:45;0.80;;;0.80;;
25621;SDS011;13487;39.360;22.962;2022-11-03T01:31:19;1.93;;;1.83;;
25621;SDS011;13487;39.360;22.962;2022-11-03T01:33:48;2.10;;;1.83;;
25621;SDS011;13487;39.360;22.962;2022-11-03T01:36:16;2.30;;;1.63;;
25621;SDS011;13487;39.360;22.962;2022-11-03T01:38:42;4.23;;;1.80;;
25621;SDS011;13487;39.360;22.962;2022-11-03T01:41:10;2.37;;;1.53;;
25621;SDS011;13487;39.360;22.962;2022-11-03T01:43:39;2.80;;;2.07;;
25621;SDS011;13487;39.360;22.962;2022-11-03T01:48:34;1.30;;;1.07;;
25621;SDS011;13487;39.360;22.962;2022-11-03T01:51:03;1.77;;;1.67;;
25621;SDS011;13487;39.360;22.962;2022-11-03T01:53:31;9.60;;;2.90;;
25621;SDS011;13487;39.360;22.962;2022-11-03T01:55:57;2.50;;;2.17;;
25621;SDS011;13487;39.360;22.962;2022-11-03T01:58:28;13.87;;;2.67;;
25621;SDS011;13487;39.360;22.962;2022-11-03T02:00:57;0.83;;;0.83;;
25621;SDS011;13487;39.360;22.962;2022-11-03T02:03:25;2.37;;;1.50;;
25621;SDS011;13487;39.360;22.962;2022-11-03T02:05:55;6.17;;;3.00;;
25621;SDS011;13487;39.360;22.962;2022-11-03T02:08:22;4.10;;;2.42;;
25621;SDS011;13487;39.360;22.962;2022-11-03T02:10:55;3.10;;;2.80;;
25621;SDS011;13487;39.360;22.962;2022-11-03T02:13:25;6.78;;;3.47;;
25621;SDS011;13487;39.360;22.962;2022-11-03T02:15:52;2.00;;;1.90;;
25621;SDS011;13487;39.360;22.962;2022-11-03T02:18:21;6.55;;;2.78;;
25621;SDS011;13487;39.360;22.962;2022-11-03T02:20:56;2.97;;;2.67;;
25621;SDS011;13487;39.360;22.962;2022-11-03T02:23:40;3.05;;;2.80;;
25621;SDS011;13487;39.360;22.962;2022-11-03T02:26:12;2.05;;;1.63;;
25621;SDS011;13487;39.360;22.962;2022-11-03T02:28:39;3.00;;;2.05;;
25621;SDS011;13487;39.360;22.962;2022-11-03T02:31:09;6.15;;;3.40;;
25621;SDS011;13487;39.360;22.962;2022-11-03T02:33:56;14.80;;;3.83;;
25621;SDS011;13487;39.360;22.962;2022-11-03T02:36:33;12.35;;;3.42;;
25621;SDS011;13487;39.360;22.962;2022-11-03T02:41:47;5.70;;;1.93;;
25621;SDS011;13487;39.360;22.962;2022-11-03T02:44:17;3.43;;;2.57;;
25621;SDS011;13487;39.360;22.962;2022-11-03T02:46:44;2.93;;;2.63;;
25621;SDS011;13487;39.360;22.962;2022-11-03T02:49:13;15.37;;;3.67;;
25621;SDS011;13487;39.360;22.962;2022-11-03T02:51:39;3.20;;;2.90;;
25621;SDS011;13487;39.360;22.962;2022-11-03T02:54:07;2.37;;;1.80;;
25621;SDS011;13487;39.360;22.962;2022-11-03T02:56:42;5.40;;;2.93;;
25621;SDS011;13487;39.360;22.962;2022-11-03T02:59:17;4.47;;;3.03;;
25621;SDS011;13487;39.360;22.962;2022-11-03T03:01:50;5.67;;;2.67;;
25621;SDS011;13487;39.360;22.962;2022-11-03T03:04:28;7.63;;;4.00;;
25621;SDS011;13487;39.360;22.962;2022-11-03T03:07:04;7.17;;;3.47;;
25621;SDS011;13487;39.360;22.962;2022-11-03T03:09:35;3.30;;;2.93;;
25621;SDS011;13487;39.360;22.962;2022-11-03T03:12:05;4.63;;;3.73;;
25621;SDS011;13487;39.360;22.962;2022-11-03T03:14:35;15.03;;;4.40;;
25621;SDS011;13487;39.360;22.962;2022-11-03T03:19:41;3.70;;;3.03;;
25621;SDS011;13487;39.360;22.962;2022-11-03T03:22:18;5.17;;;3.93;;
25621;SDS011;13487;39.360;22.962;2022-11-03T03:25:03;2.73;;;2.40;;
25621;SDS011;13487;39.360;22.962;2022-11-03T03:27:38;4.43;;;3.27;;
25621;SDS011;13487;39.360;22.962;2022-11-03T03:30:07;2.73;;;2.53;;
25621;SDS011;13487;39.360;22.962;2022-11-03T03:32:36;5.20;;;3.20;;
25621;SDS011;13487;39.360;22.962;2022-11-03T03:35:05;4.73;;;4.03;;
25621;SDS011;13487;39.360;22.962;2022-11-03T03:37:34;7.23;;;3.43;;
25621;SDS011;13487;39.360;22.962;2022-11-03T03:40:03;12.70;;;2.73;;
25621;SDS011;13487;39.360;22.962;2022-11-03T03:42:34;4.43;;;3.33;;
25621;SDS011;13487;39.360;22.962;2022-11-03T03:45:01;8.23;;;4.00;;
25621;SDS011;13487;39.360;22.962;2022-11-03T03:47:30;31.77;;;4.13;;
25621;SDS011;13487;39.360;22.962;2022-11-03T03:49:59;6.83;;;4.23;;
25621;SDS011;13487;39.360;22.962;2022-11-03T03:52:25;1.50;;;1.40;;
25621;SDS011;13487;39.360;22.962;2022-11-03T03:54:52;9.03;;;3.10;;
25621;SDS011;13487;39.360;22.962;2022-11-03T03:57:19;5.67;;;2.87;;
25621;SDS011;13487;39.360;22.962;2022-11-03T03:59:47;3.13;;;2.77;;
25621;SDS011;13487;39.360;22.962;2022-11-03T04:02:13;17.03;;;2.80;;
25621;SDS011;13487;39.360;22.962;2022-11-03T04:04:39;2.93;;;2.37;;
25621;SDS011;13487;39.360;22.962;2022-11-03T04:07:06;2.27;;;1.87;;
25621;SDS011;13487;39.360;22.962;2022-11-03T04:09:51;9.23;;;3.97;;
25621;SDS011;13487;39.360;22.962;2022-11-03T04:12:16;4.13;;;2.43;;
25621;SDS011;13487;39.360;22.962;2022-11-03T04:15:01;4.07;;;2.35;;
25621;SDS011;13487;39.360;22.962;2022-11-03T04:17:46;3.30;;;2.30;;
25621;SDS011;13487;39.360;22.962;2022-11-03T04:20:31;2.03;;;1.93;;
25621;SDS011;13487;39.360;22.962;2022-11-03T04:23:16;3.97;;;3.63;;
25621;SDS011;13487;39.360;22.962;2022-11-03T04:25:49;4.13;;;2.37;;
25621;SDS011;13487;39.360;22.962;2022-11-03T04:28:18;1.93;;;1.63;;
25621;SDS011;13487;39.360;22.962;2022-11-03T04:30:43;1.03;;;1.03;;
25621;SDS011;13487;39.360;22.962;2022-11-03T04:33:11;1.57;;;1.50;;
25621;SDS011;13487;39.360;22.962;2022-11-03T04:35:40;2.60;;;1.23;;
25621;SDS011;13487;39.360;22.962;2022-11-03T04:40:45;5.03;;;4.07;;
25621;SDS011;13487;39.360;22.962;2022-11-03T04:43:17;2.53;;;1.70;;
25621;SDS011;13487;39.360;22.962;2022-11-03T04:45:45;1.30;;;1.20;;
25621;SDS011;13487;39.360;22.962;2022-11-03T04:48:13;2.97;;;2.77;;
25621;SDS011;13487;39.360;22.962;2022-11-03T04:50:44;2.80;;;2.17;;
25621;SDS011;13487;39.360;22.962;2022-11-03T04:53:12;7.67;;;2.63;;
25621;SDS011;13487;39.360;22.962;2022-11-03T04:55:40;3.93;;;3.53;;
25621;SDS011;13487;39.360;22.962;2022-11-03T04:58:18;1.93;;;1.80;;
25621;SDS011;13487;39.360;22.962;2022-11-03T05:00:49;1.73;;;1.63;;
25621;SDS011;13487;39.360;22.962;2022-11-03T05:03:24;8.73;;;3.27;;
25621;SDS011;13487;39.360;22.962;2022-11-03T05:05:52;5.00;;;3.67;;
25621;SDS011;13487;39.360;22.962;2022-11-03T05:08:18;5.40;;;2.13;;
25621;SDS011;13487;39.360;22.962;2022-11-03T05:10:45;3.60;;;2.77;;
25621;SDS011;13487;39.360;22.962;2022-11-03T05:13:33;5.47;;;4.37;;
25621;SDS011;13487;39.360;22.962;2022-11-03T05:15:59;7.50;;;5.40;;
25621;SDS011;13487;39.360;22.962;2022-11-03T05:18:28;4.30;;;3.77;;
25621;SDS011;13487;39.360;22.962;2022-11-03T05:20:57;10.60;;;3.60;;
25621;SDS011;13487;39.360;22.962;2022-11-03T05:23:25;11.27;;;4.37;;
25621;SDS011;13487;39.360;22.962;2022-11-03T05:25:55;4.27;;;2.93;;
25621;SDS011;13487;39.360;22.962;2022-11-03T05:28:32;10.60;;;4.40;;
25621;SDS011;13487;39.360;22.962;2022-11-03T05:31:12;8.47;;;4.60;;
25621;SDS011;13487;39.360;22.962;2022-11-03T05:33:44;6.20;;;3.70;;
25621;SDS011;13487;39.360;22.962;2022-11-03T05:36:12;5.93;;;5.37;;
25621;SDS011;13487;39.360;22.962;2022-11-03T05:38:40;10.53;;;4.70;;
25621;SDS011;13487;39.360;22.962;2022-11-03T05:41:40;6.90;;;4.93;;
25621;SDS011;13487;39.360;22.962;2022-11-03T05:44:02;14.33;;;5.57;;
25621;SDS011;13487;39.360;22.962;2022-11-03T05:46:48;18.10;;;5.53;;
25621;SDS011;13487;39.360;22.962;2022-11-03T05:49:14;5.60;;;4.22;;
25621;SDS011;13487;39.360;22.962;2022-11-03T05:51:41;6.38;;;4.88;;
25621;SDS011;13487;39.360;22.962;2022-11-03T05:54:11;16.75;;;6.00;;
25621;SDS011;13487;39.360;22.962;2022-11-03T05:56:48;14.45;;;4.97;;
25621;SDS011;13487;39.360;22.962;2022-11-03T05:59:16;9.73;;;5.30;;
25621;SDS011;13487;39.360;22.962;2022-11-03T06:01:47;9.75;;;5.50;;
25621;SDS011;13487;39.360;22.962;2022-11-03T06:07:06;11.02;;;5.50;;
25621;SDS011;13487;39.360;22.962;2022-11-03T06:09:47;15.60;;;7.15;;
25621;SDS011;13487;39.360;22.962;2022-11-03T06:12:13;23.58;;;8.02;;
25621;SDS011;13487;39.360;22.962;2022-11-03T06:14:43;12.90;;;5.70;;
25621;SDS011;13487;39.360;22.962;2022-11-03T06:17:31;11.18;;;5.38;;
25621;SDS011;13487;39.360;22.962;2022-11-03T06:19:57;14.82;;;6.38;;
25621;SDS011;13487;39.360;22.962;2022-11-03T06:22:33;4.25;;;3.85;;
25621;SDS011;13487;39.360;22.962;2022-11-03T06:25:12;10.07;;;6.57;;
25621;SDS011;13487;39.360;22.962;2022-11-03T06:28:02;13.85;;;6.30;;
25621;SDS011;13487;39.360;22.962;2022-11-03T06:30:33;10.30;;;7.55;;
25621;SDS011;13487;39.360;22.962;2022-11-03T06:33:05;17.10;;;6.95;;
25621;SDS011;13487;39.360;22.962;2022-11-03T06:36:15;20.50;;;8.50;;
25621;SDS011;13487;39.360;22.962;2022-11-03T06:38:49;10.35;;;6.78;;
25621;SDS011;13487;39.360;22.962;2022-11-03T06:41:24;16.25;;;7.90;;
25621;SDS011;13487;39.360;22.962;2022-11-03T06:43:52;10.13;;;5.57;;
25621;SDS011;13487;39.360;22.962;2022-11-03T06:46:24;13.40;;;7.25;;
25621;SDS011;13487;39.360;22.962;2022-11-03T06:48:54;12.25;;;7.13;;
25621;SDS011;13487;39.360;22.962;2022-11-03T06:51:26;11.77;;;6.80;;
25621;SDS011;13487;39.360;22.962;2022-11-03T06:53:53;6.68;;;4.63;;
25621;SDS011;13487;39.360;22.962;2022-11-03T06:56:27;14.40;;;6.22;;
25621;SDS011;13487;39.360;22.962;2022-11-03T06:58:55;9.88;;;5.55;;
25621;SDS011;13487;39.360;22.962;2022-11-03T07:01:29;6.47;;;5.07;;
25621;SDS011;13487;39.360;22.962;2022-11-03T07:03:57;13.50;;;5.50;;
25621;SDS011;13487;39.360;22.962;2022-11-03T07:06:28;12.45;;;6.28;;
25621;SDS011;13487;39.360;22.962;2022-11-03T07:08:59;8.38;;;5.28;;
25621;SDS011;13487;39.360;22.962;2022-11-03T07:11:29;8.40;;;4.85;;
25621;SDS011;13487;39.360;22.962;2022-11-03T07:16:51;12.30;;;6.85;;
25621;SDS011;13487;39.360;22.962;2022-11-03T07:22:02;15.30;;;5.03;;
25621;SDS011;13487;39.360;22.962;2022-11-03T07:24:42;7.95;;;5.55;;
25621;SDS011;13487;39.360;22.962;2022-11-03T07:27:19;54.67;;;7.15;;
25621;SDS011;13487;39.360;22.962;2022-11-03T07:29:46;13.10;;;4.40;;
25621;SDS011;13487;39.360;22.962;2022-11-03T07:32:20;26.67;;;6.30;;
25621;SDS011;13487;39.360;22.962;2022-11-03T07:34:48;13.73;;;8.15;;
25621;SDS011;13487;39.360;22.962;2022-11-03T07:37:17;10.35;;;5.18;;
25621;SDS011;13487;39.360;22.962;2022-11-03T07:39:45;13.73;;;5.72;;
25621;SDS011;13487;39.360;22.962;2022-11-03T07:42:14;5.30;;;4.35;;
25621;SDS011;13487;39.360;22.962;2022-11-03T07:44:44;12.80;;;5.57;;
25621;SDS011;13487;39.360;22.962;2022-11-03T07:47:11;15.65;;;6.68;;
25621;SDS011;13487;39.360;22.962;2022-11-03T07:49:39;12.07;;;4.20;;
25621;SDS011;13487;39.360;22.962;2022-11-03T07:52:10;10.95;;;5.95;;
25621;SDS011;13487;39.360;22.962;2022-11-03T07:54:38;12.02;;;6.47;;
25621;SDS011;13487;39.360;22.962;2022-11-03T07:57:21;10.32;;;5.53;;
25621;SDS011;13487;39.360;22.962;2022-11-03T07:59:57;9.07;;;6.00;;
25621;SDS011;13487;39.360;22.962;2022-11-03T08:02:29;27.60;;;7.72;;
25621;SDS011;13487;39.360;22.962;2022-11-03T08:04:58;10.85;;;5.72;;
25621;SDS011;13487;39.360;22.962;2022-11-03T08:07:24;21.55;;;6.28;;
25621;SDS011;13487;39.360;22.962;2022-11-03T08:09:51;4.85;;;3.60;;
25621;SDS011;13487;39.360;22.962;2022-11-03T08:12:17;7.70;;;4.80;;
25621;SDS011;13487;39.360;22.962;2022-11-03T08:14:44;12.98;;;6.15;;
25621;SDS011;13487;39.360;22.962;2022-11-03T08:17:09;6.50;;;5.13;;
25621;SDS011;13487;39.360;22.962;2022-11-03T08:19:35;41.65;;;6.18;;
25621;SDS011;13487;39.360;22.962;2022-11-03T08:22:01;7.15;;;4.80;;
25621;SDS011;13487;39.360;22.962;2022-11-03T08:24:27;5.80;;;3.53;;
25621;SDS011;13487;39.360;22.962;2022-11-03T08:26:52;17.50;;;5.70;;
25621;SDS011;13487;39.360;22.962;2022-11-03T08:29:18;6.38;;;3.17;;
25621;SDS011;13487;39.360;22.962;2022-11-03T08:31:45;8.55;;;4.28;;
25621;SDS011;13487;39.360;22.962;2022-11-03T08:34:11;6.03;;;3.75;;
25621;SDS011;13487;39.360;22.962;2022-11-03T08:36:37;17.23;;;4.38;;
25621;SDS011;13487;39.360;22.962;2022-11-03T08:39:03;6.55;;;4.03;;
25621;SDS011;13487;39.360;22.962;2022-11-03T08:41:30;8.70;;;3.17;;
25621;SDS011;13487;39.360;22.962;2022-11-03T08:43:55;7.82;;;3.55;;
25621;SDS011;13487;39.360;22.962;2022-11-03T08:46:21;5.03;;;2.45;;
25621;SDS011;13487;39.360;22.962;2022-11-03T08:48:47;3.30;;;3.00;;
25621;SDS011;13487;39.360;22.962;2022-11-03T08:51:14;5.45;;;4.22;;
25621;SDS011;13487;39.360;22.962;2022-11-03T08:53:40;6.85;;;3.42;;
25621;SDS011;13487;39.360;22.962;2022-11-03T08:56:07;11.35;;;4.10;;
25621;SDS011;13487;39.360;22.962;2022-11-03T08:58:33;7.95;;;2.72;;
25621;SDS011;13487;39.360;22.962;2022-11-03T09:00:59;10.98;;;4.30;;
25621;SDS011;13487;39.360;22.962;2022-11-03T09:03:24;8.35;;;3.60;;
25621;SDS011;13487;39.360;22.962;2022-11-03T09:05:50;2.95;;;2.22;;
25621;SDS011;13487;39.360;22.962;2022-11-03T09:08:16;4.35;;;3.13;;
25621;SDS011;13487;39.360;22.962;2022-11-03T09:10:42;7.13;;;4.18;;
25621;SDS011;13487;39.360;22.962;2022-11-03T09:13:07;4.22;;;3.40;;
25621;SDS011;13487;39.360;22.962;2022-11-03T09:15:33;7.30;;;3.65;;
25621;SDS011;13487;39.360;22.962;2022-11-03T09:17:59;2.15;;;1.90;;
25621;SDS011;13487;39.360;22.962;2022-11-03T09:20:25;7.15;;;4.45;;
25621;SDS011;13487;39.360;22.962;2022-11-03T09:22:51;3.50;;;2.53;;
25621;SDS011;13487;39.360;22.962;2022-11-03T09:25:17;11.35;;;4.43;;
25621;SDS011;13487;39.360;22.962;2022-11-03T09:27:43;14.20;;;3.75;;
25621;SDS011;13487;39.360;22.962;2022-11-03T09:30:09;6.47;;;3.17;;
25621;SDS011;13487;39.360;22.962;2022-11-03T09:32:36;33.95;;;3.22;;
25621;SDS011;13487;39.360;22.962;2022-11-03T09:35:02;2.60;;;2.40;;
25621;SDS011;13487;39.360;22.962;2022-11-03T09:37:29;6.10;;;3.10;;
25621;SDS011;13487;39.360;22.962;2022-11-03T09:39:55;7.57;;;4.38;;
25621;SDS011;13487;39.360;22.962;2022-11-03T09:42:22;6.22;;;3.67;;
25621;SDS011;13487;39.360;22.962;2022-11-03T09:44:48;4.45;;;3.33;;
25621;SDS011;13487;39.360;22.962;2022-11-03T09:47:30;10.30;;;3.72;;
25621;SDS011;13487;39.360;22.962;2022-11-03T09:49:58;3.20;;;2.60;;
25621;SDS011;13487;39.360;22.962;2022-11-03T09:52:25;6.38;;;4.13;;
25621;SDS011;13487;39.360;22.962;2022-11-03T09:54:51;8.02;;;4.78;;
25621;SDS011;13487;39.360;22.962;2022-11-03T09:57:19;7.38;;;4.97;;
25621;SDS011;13487;39.360;22.962;2022-11-03T09:59:46;14.00;;;4.15;;
25621;SDS011;13487;39.360;22.962;2022-11-03T10:04:53;11.75;;;3.45;;
25621;SDS011;13487;39.360;22.962;2022-11-03T10:07:21;5.32;;;4.10;;
25621;SDS011;13487;39.360;22.962;2022-11-03T10:09:50;4.18;;;2.88;;
25621;SDS011;13487;39.360;22.962;2022-11-03T10:12:18;3.95;;;3.25;;
25621;SDS011;13487;39.360;22.962;2022-11-03T10:14:45;8.60;;;3.95;;
25621;SDS011;13487;39.360;22.962;2022-11-03T10:17:16;4.75;;;2.95;;
25621;SDS011;13487;39.360;22.962;2022-11-03T10:19:47;7.18;;;4.07;;
25621;SDS011;13487;39.360;22.962;2022-11-03T10:22:15;8.40;;;3.08;;
25621;SDS011;13487;39.360;22.962;2022-11-03T10:24:42;7.18;;;4.13;;
25621;SDS011;13487;39.360;22.962;2022-11-03T10:27:21;5.13;;;2.30;;
25621;SDS011;13487;39.360;22.962;2022-11-03T10:32:35;5.72;;;3.95;;
25621;SDS011;13487;39.360;22.962;2022-11-03T10:35:02;2.90;;;2.38;;
25621;SDS011;13487;39.360;22.962;2022-11-03T10:37:47;6.47;;;3.10;;
25621;SDS011;13487;39.360;22.962;2022-11-03T10:40:32;9.70;;;3.40;;
25621;SDS011;13487;39.360;22.962;2022-11-03T10:43:00;7.57;;;3.38;;
25621;SDS011;13487;39.360;22.962;2022-11-03T10:45:26;9.20;;;3.42;;
25621;SDS011;13487;39.360;22.962;2022-11-03T10:47:58;5.70;;;2.78;;
25621;SDS011;13487;39.360;22.962;2022-11-03T10:50:26;11.02;;;5.13;;
25621;SDS011;13487;39.360;22.962;2022-11-03T10:52:52;22.90;;;2.85;;
25621;SDS011;13487;39.360;22.962;2022-11-03T10:55:19;7.85;;;4.75;;
25621;SDS011;13487;39.360;22.962;2022-11-03T10:57:46;5.32;;;3.67;;
25621;SDS011;13487;39.360;22.962;2022-11-03T11:00:14;4.53;;;2.97;;
25621;SDS011;13487;39.360;22.962;2022-11-03T11:02:41;7.65;;;4.97;;
25621;SDS011;13487;39.360;22.962;2022-11-03T11:05:42;4.20;;;2.75;;
25621;SDS011;13487;39.360;22.962;2022-11-03T11:08:08;6.10;;;3.20;;
25621;SDS011;13487;39.360;22.962;2022-11-03T11:10:34;5.93;;;2.03;;
25621;SDS011;13487;39.360;22.962;2022-11-03T11:18:10;27.65;;;4.10;;
25621;SDS011;13487;39.360;22.962;2022-11-03T11:20:59;8.77;;;3.50;;
25621;SDS011;13487;39.360;22.962;2022-11-03T11:23:46;6.72;;;3.42;;
25621;SDS011;13487;39.360;22.962;2022-11-03T11:31:40;7.93;;;3.40;;
25621;SDS011;13487;39.360;22.962;2022-11-03T11:42:08;5.85;;;3.35;;
25621;SDS011;13487;39.360;22.962;2022-11-03T11:55:06;7.38;;;4.03;;
25621;SDS011;13487;39.360;22.962;2022-11-03T11:57:46;22.52;;;5.53;;
25621;SDS011;13487;39.360;22.962;2022-11-03T12:00:16;11.82;;;4.55;;
25621;SDS011;13487;39.360;22.962;2022-11-03T12:02:46;6.72;;;3.97;;
25621;SDS011;13487;39.360;22.962;2022-11-03T12:05:17;16.30;;;4.40;;
25621;SDS011;13487;39.360;22.962;2022-11-03T12:07:54;2.10;;;1.88;;
25621;SDS011;13487;39.360;22.962;2022-11-03T12:10:21;8.15;;;3.42;;
25621;SDS011;13487;39.360;22.962;2022-11-03T12:12:52;7.47;;;2.58;;
25621;SDS011;13487;39.360;22.962;2022-11-03T12:21:04;3.58;;;3.22;;
25621;SDS011;13487;39.360;22.962;2022-11-03T12:28:50;12.80;;;2.92;;
25621;SDS011;13487;39.360;22.962;2022-11-03T12:31:16;11.52;;;3.97;;
25621;SDS011;13487;39.360;22.962;2022-11-03T12:33:42;2.28;;;2.08;;
25621;SDS011;13487;39.360;22.962;2022-11-03T12:36:08;10.20;;;3.13;;
25621;SDS011;13487;39.360;22.962;2022-11-03T12:38:34;7.25;;;3.22;;
25621;SDS011;13487;39.360;22.962;2022-11-03T12:41:00;6.90;;;2.88;;
25621;SDS011;13487;39.360;22.962;2022-11-03T12:43:47;11.63;;;2.67;;
25621;SDS011;13487;39.360;22.962;2022-11-03T12:46:16;2.85;;;1.60;;
25621;SDS011;13487;39.360;22.962;2022-11-03T12:48:44;8.40;;;3.17;;
25621;SDS011;13487;39.360;22.962;2022-11-03T12:51:14;2.25;;;1.83;;
25621;SDS011;13487;39.360;22.962;2022-11-03T12:53:42;3.55;;;2.20;;
25621;SDS011;13487;39.360;22.962;2022-11-03T12:56:08;2.45;;;2.25;;
25621;SDS011;13487;39.360;22.962;2022-11-03T12:58:34;4.60;;;2.05;;
25621;SDS011;13487;39.360;22.962;2022-11-03T13:01:00;5.13;;;1.30;;
25621;SDS011;13487;39.360;22.962;2022-11-03T13:03:26;1.20;;;1.10;;
25621;SDS011;13487;39.360;22.962;2022-11-03T13:05:53;2.13;;;1.88;;
25621;SDS011;13487;39.360;22.962;2022-11-03T13:08:19;1.48;;;1.17;;
25621;SDS011;13487;39.360;22.962;2022-11-03T13:10:45;6.18;;;1.00;;
25621;SDS011;13487;39.360;22.962;2022-11-03T13:13:11;4.85;;;1.63;;
25621;SDS011;13487;39.360;22.962;2022-11-03T13:15:37;11.13;;;2.50;;
25621;SDS011;13487;39.360;22.962;2022-11-03T13:18:03;1.67;;;1.13;;
25621;SDS011;13487;39.360;22.962;2022-11-03T13:20:29;3.92;;;1.33;;
25621;SDS011;13487;39.360;22.962;2022-11-03T13:22:56;1.75;;;1.45;;
25621;SDS011;13487;39.360;22.962;2022-11-03T13:25:22;3.38;;;1.25;;
25621;SDS011;13487;39.360;22.962;2022-11-03T13:27:48;1.95;;;1.60;;
25621;SDS011;13487;39.360;22.962;2022-11-03T13:30:18;2.95;;;1.40;;
25621;SDS011;13487;39.360;22.962;2022-11-03T13:32:45;3.13;;;1.40;;
25621;SDS011;13487;39.360;22.962;2022-11-03T13:35:11;1.90;;;1.38;;
25621;SDS011;13487;39.360;22.962;2022-11-03T13:37:37;2.05;;;1.75;;
25621;SDS011;13487;39.360;22.962;2022-11-03T13:40:03;2.30;;;1.88;;
25621;SDS011;13487;39.360;22.962;2022-11-03T13:42:29;1.75;;;1.05;;
25621;SDS011;13487;39.360;22.962;2022-11-03T13:44:55;3.58;;;1.40;;
25621;SDS011;13487;39.360;22.962;2022-11-03T13:47:21;2.80;;;1.23;;
25621;SDS011;13487;39.360;22.962;2022-11-03T13:49:47;3.33;;;2.13;;
25621;SDS011;13487;39.360;22.962;2022-11-03T13:52:16;2.83;;;2.53;;
25621;SDS011;13487;39.360;22.962;2022-11-03T13:54:43;4.57;;;3.10;;
25621;SDS011;13487;39.360;22.962;2022-11-03T13:57:08;6.10;;;3.65;;
25621;SDS011;13487;39.360;22.962;2022-11-03T13:59:34;2.58;;;2.20;;
25621;SDS011;13487;39.360;22.962;2022-11-03T14:02:00;5.93;;;2.15;;
25621;SDS011;13487;39.360;22.962;2022-11-03T14:04:27;10.18;;;2.38;;
25621;SDS011;13487;39.360;22.962;2022-11-03T14:06:53;3.08;;;1.83;;
25621;SDS011;13487;39.360;22.962;2022-11-03T14:09:19;5.13;;;2.63;;
25621;SDS011;13487;39.360;22.962;2022-11-03T14:11:44;9.05;;;3.53;;
25621;SDS011;13487;39.360;22.962;2022-11-03T14:14:29;5.05;;;2.28;;
25621;SDS011;13487;39.360;22.962;2022-11-03T14:16:55;6.60;;;2.78;;
25621;SDS011;13487;39.360;22.962;2022-11-03T14:19:20;3.17;;;2.63;;
25621;SDS011;13487;39.360;22.962;2022-11-03T14:21:47;2.88;;;2.03;;
25621;SDS011;13487;39.360;22.962;2022-11-03T14:24:13;2.22;;;1.60;;
25621;SDS011;13487;39.360;22.962;2022-11-03T14:26:39;2.25;;;2.05;;
25621;SDS011;13487;39.360;22.962;2022-11-03T14:29:05;5.22;;;2.95;;
25621;SDS011;13487;39.360;22.962;2022-11-03T14:31:31;2.40;;;1.50;;
25621;SDS011;13487;39.360;22.962;2022-11-03T14:33:57;3.75;;;2.28;;
25621;SDS011;13487;39.360;22.962;2022-11-03T14:36:23;9.43;;;4.10;;
25621;SDS011;13487;39.360;22.962;2022-11-03T14:38:49;3.58;;;2.50;;
25621;SDS011;13487;39.360;22.962;2022-11-03T14:41:15;11.77;;;2.83;;
25621;SDS011;13487;39.360;22.962;2022-11-03T14:44:00;11.93;;;2.30;;
25621;SDS011;13487;39.360;22.962;2022-11-03T14:46:27;2.10;;;1.42;;
25621;SDS011;13487;39.360;22.962;2022-11-03T14:48:53;3.20;;;1.60;;
25621;SDS011;13487;39.360;22.962;2022-11-03T14:51:20;1.02;;;0.88;;
25621;SDS011;13487;39.360;22.962;2022-11-03T14:53:46;2.10;;;1.67;;
25621;SDS011;13487;39.360;22.962;2022-11-03T14:56:11;3.92;;;1.83;;
25621;SDS011;13487;39.360;22.962;2022-11-03T14:58:37;3.63;;;1.98;;
25621;SDS011;13487;39.360;22.962;2022-11-03T15:01:03;2.15;;;1.52;;
25621;SDS011;13487;39.360;22.962;2022-11-03T15:03:29;3.88;;;1.55;;
25621;SDS011;13487;39.360;22.962;2022-11-03T15:05:55;2.97;;;1.67;;
25621;SDS011;13487;39.360;22.962;2022-11-03T15:08:21;2.28;;;1.42;;
25621;SDS011;13487;39.360;22.962;2022-11-03T15:10:48;1.95;;;1.73;;
25621;SDS011;13487;39.360;22.962;2022-11-03T15:13:14;2.95;;;1.77;;
25621;SDS011;13487;39.360;22.962;2022-11-03T15:15:40;6.20;;;2.88;;
25621;SDS011;13487;39.360;22.962;2022-11-03T15:18:06;6.22;;;2.38;;
25621;SDS011;13487;39.360;22.962;2022-11-03T15:20:33;8.18;;;2.97;;
25621;SDS011;13487;39.360;22.962;2022-11-03T15:23:03;8.18;;;4.07;;
25621;SDS011;13487;39.360;22.962;2022-11-03T15:25:30;2.30;;;2.10;;
25621;SDS011;13487;39.360;22.962;2022-11-03T15:27:56;3.65;;;2.58;;
25621;SDS011;13487;39.360;22.962;2022-11-03T15:30:23;8.88;;;2.45;;
25621;SDS011;13487;39.360;22.962;2022-11-03T15:32:48;2.33;;;1.58;;
25621;SDS011;13487;39.360;22.962;2022-11-03T15:35:20;4.00;;;2.85;;
25621;SDS011;13487;39.360;22.962;2022-11-03T15:37:46;4.05;;;3.03;;
25621;SDS011;13487;39.360;22.962;2022-11-03T15:40:13;2.83;;;1.85;;
25621;SDS011;13487;39.360;22.962;2022-11-03T15:42:39;25.42;;;2.83;;
25621;SDS011;13487;39.360;22.962;2022-11-03T15:45:06;3.15;;;1.75;;
25621;SDS011;13487;39.360;22.962;2022-11-03T15:47:34;1.92;;;1.58;;
25621;SDS011;13487;39.360;22.962;2022-11-03T15:49:59;6.63;;;3.72;;
25621;SDS011;13487;39.360;22.962;2022-11-03T15:52:25;5.82;;;3.13;;